Time;durP1;ratioP1;P1;durP2;ratioP2;P2;SDS_P1;SDS_P2;PMS_P1;PMS_P2;Temp;Humidity;BMP_temperature;BMP_pressure;BME280_temperature;BME280_humidity;BME280_pressure;Samples;Min_cycle;Max_cycle;Signal;HPM_P1;HPM_P2
2021/01/10 00:00:51;;;;;;;16.17;5.87;;;;;;;;;;5090564;28;20032;-83
2021/01/10 00:03:18;;;;;;;13.70;4.97;;;;;;;;;;5110949;28;20024;-83
2021/01/10 00:05:44;;;;;;;11.83;4.67;;;;;;;;;;5076835;28;20036;-83
2021/01/10 00:08:10;;;;;;;9.57;3.57;;;;;;;;;;5094125;28;20096;-83
2021/01/10 00:10:36;;;;;;;9.43;4.03;;;;;;;;;;5077259;28;20028;-83
2021/01/10 00:13:02;;;;;;;17.87;5.87;;;;;;;;;;5094169;28;20036;-84
2021/01/10 00:15:29;;;;;;;14.03;4.40;;;;;;;;;;5094909;28;20058;-85
2021/01/10 00:17:55;;;;;;;11.97;4.67;;;;;;;;;;5099374;28;20099;-84
2021/01/10 00:20:21;;;;;;;16.03;5.77;;;;;;;;;;5074815;28;20032;-83
2021/01/10 00:22:54;;;;;;;8.40;4.27;;;;;;;;;;5073210;28;20040;-84
2021/01/10 00:25:25;;;;;;;10.47;4.53;;;;;;;;;;5077744;28;20500;-85
2021/01/10 00:27:51;;;;;;;10.00;4.43;;;;;;;;;;5114728;28;20034;-83
2021/01/10 00:30:21;;;;;;;15.33;4.60;;;;;;;;;;5095369;28;20016;-84
2021/01/10 00:32:47;;;;;;;13.77;4.40;;;;;;;;;;5097186;28;20028;-85
2021/01/10 00:35:13;;;;;;;11.83;5.23;;;;;;;;;;5072947;28;20052;-83
2021/01/10 00:37:51;;;;;;;11.60;3.83;;;;;;;;;;5093799;28;20051;-85
2021/01/10 00:40:18;;;;;;;12.13;4.00;;;;;;;;;;5094203;28;20025;-83
2021/01/10 00:42:44;;;;;;;9.67;4.10;;;;;;;;;;5089453;28;20035;-83
2021/01/10 00:45:12;;;;;;;13.37;5.17;;;;;;;;;;5087311;28;20054;-83
2021/01/10 00:47:38;;;;;;;7.53;3.90;;;;;;;;;;5085070;28;20032;-83
2021/01/10 00:50:04;;;;;;;9.70;4.03;;;;;;;;;;5086090;28;20119;-83
2021/01/10 00:52:31;;;;;;;9.93;4.27;;;;;;;;;;5085604;28;20049;-83
2021/01/10 00:54:57;;;;;;;8.50;3.83;;;;;;;;;;5086106;28;20119;-83
2021/01/10 00:57:23;;;;;;;8.60;3.80;;;;;;;;;;5086965;28;20024;-83
2021/01/10 00:59:49;;;;;;;11.67;3.83;;;;;;;;;;5086631;28;20028;-83
2021/01/10 01:02:15;;;;;;;9.60;3.80;;;;;;;;;;5070844;28;20055;-84
2021/01/10 01:04:41;;;;;;;10.37;3.77;;;;;;;;;;5091180;28;20048;-83
2021/01/10 01:07:07;;;;;;;16.60;4.10;;;;;;;;;;5077258;28;20032;-84
2021/01/10 01:09:33;;;;;;;7.37;1.97;;;;;;;;;;5094696;28;20031;-84
2021/01/10 01:11:59;;;;;;;11.80;1.53;;;;;;;;;;5096144;28;20036;-85
2021/01/10 01:14:26;;;;;;;9.27;1.00;;;;;;;;;;5076457;28;20035;-83
2021/01/10 01:16:52;;;;;;;9.97;1.63;;;;;;;;;;5088310;28;20028;-82
2021/01/10 01:19:18;;;;;;;7.70;1.10;;;;;;;;;;5088928;28;20024;-83
2021/01/10 01:21:44;;;;;;;3.77;0.80;;;;;;;;;;5090544;28;20028;-84
2021/01/10 01:24:10;;;;;;;9.00;1.60;;;;;;;;;;5076692;28;20540;-85
2021/01/10 01:26:36;;;;;;;7.63;1.23;;;;;;;;;;5076953;28;20096;-84
2021/01/10 01:29:02;;;;;;;8.50;1.20;;;;;;;;;;5096554;28;20028;-85
2021/01/10 01:31:32;;;;;;;8.30;1.50;;;;;;;;;;5096050;28;20020;-85
2021/01/10 01:33:58;;;;;;;6.67;1.07;;;;;;;;;;5114345;28;20020;-85
2021/01/10 01:36:27;;;;;;;9.67;1.43;;;;;;;;;;5076793;28;20052;-84
2021/01/10 01:38:53;;;;;;;8.30;1.90;;;;;;;;;;5086098;28;20024;-83
2021/01/10 01:41:20;;;;;;;4.90;1.10;;;;;;;;;;5104396;28;20085;-83
2021/01/10 01:43:46;;;;;;;10.37;1.20;;;;;;;;;;5070555;28;20061;-82
2021/01/10 01:46:12;;;;;;;9.50;1.50;;;;;;;;;;5086453;28;20036;-81
2021/01/10 01:48:39;;;;;;;7.43;1.20;;;;;;;;;;5087363;28;20101;-83
2021/01/10 01:51:06;;;;;;;9.30;1.23;;;;;;;;;;5088326;28;20050;-83
2021/01/10 01:53:32;;;;;;;4.80;1.27;;;;;;;;;;5107128;28;20024;-82
2021/01/10 01:55:59;;;;;;;8.87;1.10;;;;;;;;;;5075333;28;20031;-83
2021/01/10 01:58:25;;;;;;;6.53;1.50;;;;;;;;;;5100115;28;20028;-85
2021/01/10 02:00:52;;;;;;;6.00;1.10;;;;;;;;;;5080764;28;20053;-84
2021/01/10 02:03:20;;;;;;;4.97;1.20;;;;;;;;;;5116210;28;20058;-85
2021/01/10 02:05:48;;;;;;;7.30;1.10;;;;;;;;;;5097838;28;20028;-83
2021/01/10 02:08:14;;;;;;;2.50;0.87;;;;;;;;;;5110659;28;20079;-84
2021/01/10 02:10:41;;;;;;;6.30;1.03;;;;;;;;;;5093320;28;20050;-83
2021/01/10 02:13:13;;;;;;;4.53;1.13;;;;;;;;;;5091869;28;20024;-83
2021/01/10 02:15:40;;;;;;;3.83;0.73;;;;;;;;;;5090626;28;20095;-83
2021/01/10 02:18:07;;;;;;;5.00;1.00;;;;;;;;;;5110628;28;20033;-82
2021/01/10 02:20:34;;;;;;;10.27;1.07;;;;;;;;;;5093257;28;20397;-84
2021/01/10 02:23:00;;;;;;;3.47;1.00;;;;;;;;;;5111866;28;20034;-84
2021/01/10 02:25:27;;;;;;;4.90;1.23;;;;;;;;;;5095812;28;20028;-83
2021/01/10 02:27:53;;;;;;;5.10;1.17;;;;;;;;;;5080812;28;20047;-84
2021/01/10 02:30:20;;;;;;;3.90;0.73;;;;;;;;;;5098664;28;20035;-85
2021/01/10 02:32:48;;;;;;;6.30;1.23;;;;;;;;;;5081759;28;20092;-85
2021/01/10 02:35:16;;;;;;;6.17;1.13;;;;;;;;;;5095732;28;20051;-83
2021/01/10 02:37:42;;;;;;;3.33;1.77;;;;;;;;;;5096401;28;20028;-84
2021/01/10 02:40:12;;;;;;;3.50;0.90;;;;;;;;;;5095992;28;20128;-84
2021/01/10 02:42:44;;;;;;;6.70;1.20;;;;;;;;;;5095430;28;20032;-84
2021/01/10 02:45:12;;;;;;;2.23;1.20;;;;;;;;;;5094704;28;20070;-84
2021/01/10 02:47:39;;;;;;;2.30;1.07;;;;;;;;;;5113153;28;20031;-84
2021/01/10 02:50:09;;;;;;;3.57;1.20;;;;;;;;;;5111686;28;20028;-84
2021/01/10 02:52:35;;;;;;;6.63;1.00;;;;;;;;;;5115689;28;20036;-85
2021/01/10 02:55:01;;;;;;;5.23;1.20;;;;;;;;;;5094250;28;20020;-82
2021/01/10 02:57:33;;;;;;;4.47;1.13;;;;;;;;;;5089323;28;20400;-83
2021/01/10 03:00:00;;;;;;;6.73;1.47;;;;;;;;;;5090845;28;20028;-84
2021/01/10 03:02:27;;;;;;;5.30;1.10;;;;;;;;;;5094486;28;20050;-85
2021/01/10 03:04:53;;;;;;;3.90;1.67;;;;;;;;;;5093011;28;20028;-82
2021/01/10 03:07:20;;;;;;;3.50;1.07;;;;;;;;;;5093477;28;20024;-84
2021/01/10 03:09:47;;;;;;;2.53;1.17;;;;;;;;;;5092708;28;20441;-82
2021/01/10 03:12:16;;;;;;;5.37;1.30;;;;;;;;;;5089623;28;20028;-83
2021/01/10 03:14:45;;;;;;;4.43;1.73;;;;;;;;;;5091094;28;20024;-83
2021/01/10 03:17:41;;;;;;;4.47;1.40;;;;;;;;;;5072931;28;20448;-82
2021/01/10 03:20:11;;;;;;;3.17;1.10;;;;;;;;;;5069141;28;20067;-83
2021/01/10 03:22:37;;;;;;;3.53;1.03;;;;;;;;;;5092283;28;20038;-83
2021/01/10 03:25:05;;;;;;;3.17;1.03;;;;;;;;;;5094428;28;20088;-84
2021/01/10 03:27:31;;;;;;;6.57;1.50;;;;;;;;;;5114173;28;20012;-84
2021/01/10 03:29:57;;;;;;;7.50;1.30;;;;;;;;;;5116109;28;20047;-85
2021/01/10 03:32:23;;;;;;;5.33;1.70;;;;;;;;;;5099206;28;20024;-84
2021/01/10 03:34:49;;;;;;;1.90;1.30;;;;;;;;;;5096999;28;20104;-83
2021/01/10 03:37:15;;;;;;;6.80;2.33;;;;;;;;;;5082393;28;20028;-86
2021/01/10 03:39:41;;;;;;;5.47;1.47;;;;;;;;;;5082688;28;20107;-84
2021/01/10 03:42:07;;;;;;;31.17;13.37;;;;;;;;;;5082654;28;20031;-85
2021/01/10 03:44:33;;;;;;;22.20;10.20;;;;;;;;;;5082911;28;20032;-85
2021/01/10 03:46:59;;;;;;;19.83;8.27;;;;;;;;;;5082535;28;20096;-85
2021/01/10 03:49:26;;;;;;;8.87;4.03;;;;;;;;;;5082249;28;20050;-84
2021/01/10 03:51:52;;;;;;;11.37;3.87;;;;;;;;;;5081698;28;20028;-84
2021/01/10 03:54:18;;;;;;;9.80;2.93;;;;;;;;;;5098175;28;20042;-83
2021/01/10 03:56:44;;;;;;;7.97;2.87;;;;;;;;;;5094264;28;20024;-83
2021/01/10 03:59:10;;;;;;;6.53;2.33;;;;;;;;;;5071426;28;20473;-82
2021/01/10 04:01:36;;;;;;;8.20;2.53;;;;;;;;;;5089538;28;20032;-83
2021/01/10 04:04:02;;;;;;;8.83;2.63;;;;;;;;;;5089705;28;20081;-85
2021/01/10 04:06:29;;;;;;;10.00;2.30;;;;;;;;;;5091600;28;20035;-84
2021/01/10 04:08:55;;;;;;;5.43;2.20;;;;;;;;;;5094198;28;20020;-85
2021/01/10 04:11:21;;;;;;;7.30;2.40;;;;;;;;;;5095900;28;20042;-84
2021/01/10 04:13:47;;;;;;;11.90;3.53;;;;;;;;;;5093956;28;20035;-83
2021/01/10 04:16:14;;;;;;;8.53;1.87;;;;;;;;;;5096314;28;20024;-84
2021/01/10 04:18:40;;;;;;;6.63;2.70;;;;;;;;;;5098776;28;20066;-85
2021/01/10 04:21:06;;;;;;;6.53;2.03;;;;;;;;;;5111441;28;20051;-84
2021/01/10 04:23:32;;;;;;;3.93;2.20;;;;;;;;;;5116391;28;20158;-85
2021/01/10 04:25:58;;;;;;;7.30;2.47;;;;;;;;;;5096141;28;20028;-83
2021/01/10 04:28:24;;;;;;;4.47;2.00;;;;;;;;;;5087136;28;20035;-83
2021/01/10 04:30:51;;;;;;;6.00;1.97;;;;;;;;;;5088570;28;20067;-83
2021/01/10 04:33:17;;;;;;;5.53;1.77;;;;;;;;;;5110367;28;20032;-84
2021/01/10 04:35:43;;;;;;;6.10;1.67;;;;;;;;;;5093234;28;20040;-83
2021/01/10 04:38:09;;;;;;;6.37;2.30;;;;;;;;;;5089060;28;20031;-83
2021/01/10 04:40:35;;;;;;;7.27;1.73;;;;;;;;;;5093119;28;20024;-86
2021/01/10 04:43:01;;;;;;;6.33;2.50;;;;;;;;;;5094902;28;20035;-83
2021/01/10 04:45:27;;;;;;;6.73;2.07;;;;;;;;;;5088955;28;20051;-83
2021/01/10 04:47:54;;;;;;;5.77;1.83;;;;;;;;;;5093733;28;20035;-85
2021/01/10 04:50:22;;;;;;;4.67;2.40;;;;;;;;;;5075682;28;20024;-84
2021/01/10 04:52:48;;;;;;;6.87;2.30;;;;;;;;;;5110937;28;20022;-85
2021/01/10 04:55:15;;;;;;;5.87;1.70;;;;;;;;;;5091471;28;20122;-84
2021/01/10 04:57:42;;;;;;;5.10;1.63;;;;;;;;;;5092740;28;20035;-85
2021/01/10 05:00:10;;;;;;;5.87;2.00;;;;;;;;;;5091332;28;20047;-84
2021/01/10 05:02:39;;;;;;;6.60;1.80;;;;;;;;;;5093967;28;20034;-85
2021/01/10 05:05:05;;;;;;;8.27;1.93;;;;;;;;;;5088069;28;20035;-83
2021/01/10 05:07:34;;;;;;;7.57;1.60;;;;;;;;;;5084896;28;20485;-83
2021/01/10 05:10:00;;;;;;;4.37;1.53;;;;;;;;;;5086647;28;20087;-83
2021/01/10 05:12:28;;;;;;;7.47;1.60;;;;;;;;;;5088552;28;20051;-83
2021/01/10 05:14:54;;;;;;;5.87;1.37;;;;;;;;;;5087960;28;20028;-83
2021/01/10 05:17:20;;;;;;;9.50;1.60;;;;;;;;;;5085940;28;20036;-83
2021/01/10 05:19:47;;;;;;;6.03;1.60;;;;;;;;;;5086857;28;20032;-83
2021/01/10 05:22:13;;;;;;;7.13;1.70;;;;;;;;;;5087319;28;20405;-83
2021/01/10 05:24:39;;;;;;;9.57;2.40;;;;;;;;;;5087178;28;20043;-83
2021/01/10 05:27:05;;;;;;;8.13;1.40;;;;;;;;;;5087353;28;20024;-83
2021/01/10 05:29:31;;;;;;;8.73;1.80;;;;;;;;;;5068941;28;20025;-83
2021/01/10 05:31:57;;;;;;;7.40;1.70;;;;;;;;;;5108197;28;20038;-84
2021/01/10 05:34:24;;;;;;;5.87;1.63;;;;;;;;;;5110118;28;20032;-83
2021/01/10 05:36:50;;;;;;;3.47;1.50;;;;;;;;;;5095079;28;20048;-84
2021/01/10 05:39:27;;;;;;;9.03;1.53;;;;;;;;;;5097090;28;20115;-85
2021/01/10 05:41:56;;;;;;;6.07;2.00;;;;;;;;;;5097810;28;20031;-85
2021/01/10 05:44:23;;;;;;;9.70;2.10;;;;;;;;;;5115378;28;20054;-85
2021/01/10 05:46:49;;;;;;;4.73;1.50;;;;;;;;;;5098134;28;20012;-84
2021/01/10 05:49:16;;;;;;;5.43;2.00;;;;;;;;;;5096685;28;20095;-83
2021/01/10 05:51:42;;;;;;;6.23;1.77;;;;;;;;;;5087438;28;20070;-83
2021/01/10 05:54:08;;;;;;;7.93;1.60;;;;;;;;;;5076110;28;20033;-83
2021/01/10 05:56:35;;;;;;;5.80;1.67;;;;;;;;;;5070507;28;20028;-83
2021/01/10 05:59:01;;;;;;;9.47;1.50;;;;;;;;;;5069996;28;20028;-83
2021/01/10 06:01:27;;;;;;;5.30;1.80;;;;;;;;;;5104737;28;20649;-83
2021/01/10 06:03:53;;;;;;;5.17;1.47;;;;;;;;;;5089121;28;20028;-83
2021/01/10 06:06:20;;;;;;;7.67;1.40;;;;;;;;;;5087902;28;20024;-84
2021/01/10 06:08:46;;;;;;;6.47;1.07;;;;;;;;;;5090596;28;20031;-83
2021/01/10 06:11:21;;;;;;;7.10;1.50;;;;;;;;;;5092012;28;20091;-85
2021/01/10 06:13:48;;;;;;;5.23;1.27;;;;;;;;;;5095646;28;20053;-84
2021/01/10 06:16:18;;;;;;;5.77;1.53;;;;;;;;;;5097263;28;20436;-84
2021/01/10 06:18:45;;;;;;;5.90;1.60;;;;;;;;;;5092371;28;20024;-83
2021/01/10 06:21:19;;;;;;;5.07;1.43;;;;;;;;;;5088464;28;20380;-83
2021/01/10 06:23:53;;;;;;;9.70;1.67;;;;;;;;;;5089248;28;20461;-83
2021/01/10 06:26:20;;;;;;;5.95;1.27;;;;;;;;;;5089568;28;20028;-83
2021/01/10 06:28:50;;;;;;;6.10;2.30;;;;;;;;;;5107830;28;20023;-84
2021/01/10 06:31:21;;;;;;;8.33;1.27;;;;;;;;;;5110033;28;20075;-84
2021/01/10 06:33:47;;;;;;;8.23;1.50;;;;;;;;;;5093544;28;20294;-83
2021/01/10 06:36:14;;;;;;;4.73;1.50;;;;;;;;;;5094191;28;20044;-84
2021/01/10 06:38:40;;;;;;;6.70;1.60;;;;;;;;;;5095855;28;20043;-83
2021/01/10 06:41:54;;;;;;;5.67;1.77;;;;;;;;;;5096229;28;20041;-83
2021/01/10 06:44:21;;;;;;;3.67;1.23;;;;;;;;;;5035046;28;20115;-83
2021/01/10 06:46:51;;;;;;;6.10;1.40;;;;;;;;;;5032731;28;20021;-83
2021/01/10 06:49:17;;;;;;;3.77;1.23;;;;;;;;;;5033008;28;20040;-84
2021/01/10 06:51:44;;;;;;;7.00;1.50;;;;;;;;;;5035622;28;20032;-85
2021/01/10 06:54:11;;;;;;;7.07;1.40;;;;;;;;;;5036844;28;20033;-84
2021/01/10 06:56:38;;;;;;;5.63;2.10;;;;;;;;;;5036427;28;20201;-85
2021/01/10 06:59:11;;;;;;;3.77;1.27;;;;;;;;;;5035214;28;20037;-85
2021/01/10 07:01:46;;;;;;;4.43;1.37;;;;;;;;;;5035796;28;20037;-84
2021/01/10 07:04:12;;;;;;;5.67;1.33;;;;;;;;;;5035592;28;20030;-86
2021/01/10 07:06:45;;;;;;;6.80;1.20;;;;;;;;;;5031019;28;20026;-84
2021/01/10 07:09:11;;;;;;;6.07;1.67;;;;;;;;;;5023679;28;20036;-84
2021/01/10 07:11:38;;;;;;;5.80;1.23;;;;;;;;;;5023406;28;20025;-83
2021/01/10 07:14:04;;;;;;;5.17;1.43;;;;;;;;;;5031496;28;20044;-84
2021/01/10 07:16:30;;;;;;;9.27;3.50;;;;;;;;;;5084317;28;20028;-83
2021/01/10 07:19:15;;;;;;;4.97;1.53;;;;;;;;;;5084503;28;20024;-83
2021/01/10 07:21:43;;;;;;;6.53;1.27;;;;;;;;;;5084246;28;20032;-84
2021/01/10 07:24:15;;;;;;;5.27;1.23;;;;;;;;;;5103874;28;20107;-84
2021/01/10 07:26:51;;;;;;;7.60;1.50;;;;;;;;;;5085022;28;20484;-84
2021/01/10 07:29:41;;;;;;;13.37;2.33;;;;;;;;;;5084787;28;20027;-84
2021/01/10 07:32:15;;;;;;;11.27;2.90;;;;;;;;;;5104456;28;20020;-83
2021/01/10 07:34:44;;;;;;;7.70;1.43;;;;;;;;;;5088372;28;20020;-84
2021/01/10 07:37:12;;;;;;;6.30;1.50;;;;;;;;;;5091563;28;20298;-83
2021/01/10 07:39:48;;;;;;;6.73;1.63;;;;;;;;;;5086020;28;20054;-83
2021/01/10 07:42:16;;;;;;;5.80;1.70;;;;;;;;;;5085414;28;20039;-83
2021/01/10 07:44:49;;;;;;;7.07;1.60;;;;;;;;;;5084816;28;20028;-83
2021/01/10 07:47:16;;;;;;;8.27;1.70;;;;;;;;;;5104517;28;20020;-84
2021/01/10 07:49:53;;;;;;;7.53;1.70;;;;;;;;;;5086012;28;20027;-83
2021/01/10 07:52:39;;;;;;;5.20;2.30;;;;;;;;;;5086467;28;20032;-83
2021/01/10 07:55:05;;;;;;;4.60;1.97;;;;;;;;;;5086162;28;20123;-83
2021/01/10 07:57:32;;;;;;;11.60;2.67;;;;;;;;;;5086966;28;20032;-84
2021/01/10 08:00:09;;;;;;;9.90;2.70;;;;;;;;;;5087256;28;20027;-83
2021/01/10 08:02:48;;;;;;;4.07;2.13;;;;;;;;;;5088305;28;20085;-83
2021/01/10 08:05:15;;;;;;;7.37;2.60;;;;;;;;;;5105812;28;20031;-83
2021/01/10 08:07:51;;;;;;;7.20;3.13;;;;;;;;;;5108247;28;20028;-85
2021/01/10 08:10:17;;;;;;;10.47;3.70;;;;;;;;;;5095877;28;20205;-84
2021/01/10 08:12:43;;;;;;;10.00;3.47;;;;;;;;;;5085208;28;20038;-83
2021/01/10 08:15:11;;;;;;;6.50;2.87;;;;;;;;;;5086546;28;20431;-83
2021/01/10 08:17:37;;;;;;;6.40;3.43;;;;;;;;;;5089473;28;20035;-83
2021/01/10 08:20:07;;;;;;;8.57;3.90;;;;;;;;;;5087555;28;20419;-83
2021/01/10 08:22:34;;;;;;;9.53;4.40;;;;;;;;;;5106127;28;20082;-83
2021/01/10 08:25:01;;;;;;;9.10;4.40;;;;;;;;;;5106595;28;20035;-82
2021/01/10 08:27:28;;;;;;;11.23;4.40;;;;;;;;;;5089437;28;20556;-82
2021/01/10 08:29:54;;;;;;;9.67;4.07;;;;;;;;;;5088797;28;20424;-83
2021/01/10 08:32:21;;;;;;;8.03;4.50;;;;;;;;;;5089678;28;20055;-83
2021/01/10 08:34:47;;;;;;;10.30;4.60;;;;;;;;;;5089968;28;20024;-83
2021/01/10 08:37:14;;;;;;;11.43;5.23;;;;;;;;;;5089291;28;20134;-82
2021/01/10 08:39:40;;;;;;;9.93;5.10;;;;;;;;;;5092050;28;20036;-83
2021/01/10 08:42:06;;;;;;;13.73;5.00;;;;;;;;;;5076703;28;20362;-83
2021/01/10 08:44:32;;;;;;;12.30;4.13;;;;;;;;;;5093038;28;20032;-83
2021/01/10 08:46:58;;;;;;;14.17;5.30;;;;;;;;;;5112929;28;20024;-83
2021/01/10 08:49:26;;;;;;;16.97;5.23;;;;;;;;;;5093711;28;20031;-84
2021/01/10 08:51:53;;;;;;;11.83;5.80;;;;;;;;;;5094368;28;20042;-85
2021/01/10 08:54:20;;;;;;;9.80;5.00;;;;;;;;;;5094490;28;20028;-84
2021/01/10 08:56:50;;;;;;;13.57;4.70;;;;;;;;;;5094720;28;20020;-84
2021/01/10 08:59:18;;;;;;;15.43;5.80;;;;;;;;;;5093446;28;20017;-84
2021/01/10 09:01:44;;;;;;;13.53;5.47;;;;;;;;;;5093321;28;20024;-84
2021/01/10 09:04:14;;;;;;;16.40;5.23;;;;;;;;;;5093979;28;20039;-86
2021/01/10 09:06:50;;;;;;;8.30;5.33;;;;;;;;;;5110880;28;20020;-83
2021/01/10 09:09:16;;;;;;;11.33;5.67;;;;;;;;;;5093080;28;20463;-85
2021/01/10 09:11:43;;;;;;;17.87;6.53;;;;;;;;;;5090608;28;20032;-83
2021/01/10 09:14:10;;;;;;;11.13;5.77;;;;;;;;;;5092842;28;20039;-85
2021/01/10 09:16:37;;;;;;;12.27;7.23;;;;;;;;;;5091671;28;20020;-83
2021/01/10 09:19:03;;;;;;;13.47;6.83;;;;;;;;;;5088745;28;20053;-84
2021/01/10 09:21:30;;;;;;;12.53;6.47;;;;;;;;;;5091580;28;20024;-83
2021/01/10 09:23:57;;;;;;;20.87;8.97;;;;;;;;;;5090691;28;20021;-84
2021/01/10 09:26:27;;;;;;;18.83;8.60;;;;;;;;;;5089334;28;20428;-85
2021/01/10 09:28:53;;;;;;;17.33;9.00;;;;;;;;;;5090090;28;20024;-83
2021/01/10 09:31:19;;;;;;;26.53;9.60;;;;;;;;;;5089638;28;20111;-83
2021/01/10 09:33:53;;;;;;;19.23;9.00;;;;;;;;;;5091155;28;20061;-84
2021/01/10 09:36:19;;;;;;;21.48;8.50;;;;;;;;;;5092083;28;20090;-85
2021/01/10 09:38:56;;;;;;;26.10;10.13;;;;;;;;;;5092583;28;20020;-84
2021/01/10 09:41:22;;;;;;;22.97;8.83;;;;;;;;;;5092850;28;20031;-83
2021/01/10 09:43:52;;;;;;;20.50;7.67;;;;;;;;;;5078926;28;20028;-83
2021/01/10 09:46:37;;;;;;;21.30;9.13;;;;;;;;;;5091149;28;20036;-83
2021/01/10 09:49:22;;;;;;;19.23;9.03;;;;;;;;;;5087267;28;20431;-84
2021/01/10 09:51:48;;;;;;;21.13;8.48;;;;;;;;;;5108652;28;20028;-84
2021/01/10 09:54:14;;;;;;;17.10;8.40;;;;;;;;;;5085468;28;20028;-82
2021/01/10 09:56:40;;;;;;;17.57;7.97;;;;;;;;;;5086779;28;20039;-84
2021/01/10 09:59:26;;;;;;;16.70;8.37;;;;;;;;;;5087149;28;20024;-82
2021/01/10 10:01:53;;;;;;;16.27;8.40;;;;;;;;;;5072049;28;20073;-83
2021/01/10 10:04:26;;;;;;;14.37;7.93;;;;;;;;;;5076498;28;20040;-84
2021/01/10 10:06:52;;;;;;;15.67;8.60;;;;;;;;;;5090295;28;20052;-83
2021/01/10 10:09:18;;;;;;;18.30;8.57;;;;;;;;;;5092004;28;20028;-84
2021/01/10 10:11:44;;;;;;;16.33;7.93;;;;;;;;;;5094255;28;20123;-83
2021/01/10 10:14:10;;;;;;;18.07;8.87;;;;;;;;;;5094191;28;20028;-83
2021/01/10 10:16:36;;;;;;;17.53;8.83;;;;;;;;;;5095420;28;20032;-82
2021/01/10 10:19:02;;;;;;;20.27;8.67;;;;;;;;;;5098175;28;20034;-83
2021/01/10 10:21:29;;;;;;;16.13;9.57;;;;;;;;;;5099342;28;20035;-82
2021/01/10 10:23:55;;;;;;;17.10;9.27;;;;;;;;;;5082259;28;20036;-84
2021/01/10 10:26:21;;;;;;;15.10;8.27;;;;;;;;;;5094918;28;20110;-83
2021/01/10 10:28:47;;;;;;;26.73;9.03;;;;;;;;;;5094972;28;20046;-82
2021/01/10 10:31:13;;;;;;;14.97;8.03;;;;;;;;;;5093188;28;20024;-85
2021/01/10 10:33:39;;;;;;;13.73;7.80;;;;;;;;;;5094047;28;20091;-82
2021/01/10 10:36:06;;;;;;;12.37;6.57;;;;;;;;;;5092430;28;20051;-82
2021/01/10 10:38:38;;;;;;;15.40;7.43;;;;;;;;;;5105910;28;20051;-81
2021/01/10 10:41:04;;;;;;;14.17;6.57;;;;;;;;;;5107367;28;20024;-83
2021/01/10 10:43:31;;;;;;;11.40;7.63;;;;;;;;;;5090898;28;20035;-82
2021/01/10 10:45:57;;;;;;;14.60;7.20;;;;;;;;;;5092096;28;20070;-84
2021/01/10 10:48:23;;;;;;;14.60;6.87;;;;;;;;;;5097612;28;20088;-83
2021/01/10 10:50:50;;;;;;;12.53;7.17;;;;;;;;;;5116573;28;20047;-85
2021/01/10 10:53:16;;;;;;;23.13;8.73;;;;;;;;;;5098710;28;20111;-82
2021/01/10 10:55:42;;;;;;;16.70;8.07;;;;;;;;;;5108077;28;20040;-82
2021/01/10 10:58:09;;;;;;;11.47;5.70;;;;;;;;;;5088685;28;20038;-82
2021/01/10 11:00:35;;;;;;;15.33;6.47;;;;;;;;;;5087644;28;20024;-81
2021/01/10 11:03:01;;;;;;;15.97;6.87;;;;;;;;;;5090458;28;20053;-83
2021/01/10 11:05:27;;;;;;;12.60;6.47;;;;;;;;;;5092708;28;20039;-84
2021/01/10 11:07:53;;;;;;;10.83;5.97;;;;;;;;;;5108373;28;20076;-82
2021/01/10 11:10:19;;;;;;;11.13;6.97;;;;;;;;;;5088467;28;20020;-82
2021/01/10 11:12:45;;;;;;;12.10;6.47;;;;;;;;;;5087878;28;20024;-82
2021/01/10 11:15:32;;;;;;;12.03;7.00;;;;;;;;;;5092945;28;20048;-82
2021/01/10 11:17:58;;;;;;;12.07;7.53;;;;;;;;;;5094262;28;20032;-84
2021/01/10 11:20:24;;;;;;;12.20;7.23;;;;;;;;;;5094360;28;20031;-83
2021/01/10 11:22:51;;;;;;;13.97;7.93;;;;;;;;;;5097586;28;20453;-84
2021/01/10 11:25:17;;;;;;;18.00;7.73;;;;;;;;;;5076990;28;20051;-84
2021/01/10 11:27:43;;;;;;;13.57;7.63;;;;;;;;;;5092362;28;20032;-84
2021/01/10 11:30:09;;;;;;;21.13;8.80;;;;;;;;;;5073946;28;20042;-84
2021/01/10 11:32:37;;;;;;;16.23;8.80;;;;;;;;;;5089533;28;20491;-83
2021/01/10 11:35:03;;;;;;;17.50;8.33;;;;;;;;;;5087780;28;20096;-83
2021/01/10 11:37:29;;;;;;;14.77;8.37;;;;;;;;;;5087637;28;20077;-83
2021/01/10 11:39:55;;;;;;;15.73;8.10;;;;;;;;;;5090226;28;20028;-82
2021/01/10 11:42:21;;;;;;;13.87;7.23;;;;;;;;;;5089002;28;20032;-85
2021/01/10 11:44:48;;;;;;;16.80;7.00;;;;;;;;;;5093350;28;20060;-84
2021/01/10 11:50:17;;;;;;;12.87;7.50;;;;;;;;;;5110442;28;20049;-82
2021/01/10 11:52:43;;;;;;;10.27;5.30;;;;;;;;;;5087757;28;20016;-83
2021/01/10 11:55:10;;;;;;;10.73;7.63;;;;;;;;;;5092000;28;20032;-82
2021/01/10 11:57:36;;;;;;;10.70;7.30;;;;;;;;;;5094290;28;20004;-83
2021/01/10 12:00:03;;;;;;;12.70;6.90;;;;;;;;;;5092126;28;20027;-81
2021/01/10 12:02:29;;;;;;;14.53;8.00;;;;;;;;;;5091277;28;20028;-83
2021/01/10 12:04:55;;;;;;;10.80;7.37;;;;;;;;;;5088290;28;20046;-82
2021/01/10 12:07:21;;;;;;;15.93;6.67;;;;;;;;;;5085995;28;20453;-82
2021/01/10 12:09:47;;;;;;;13.13;7.40;;;;;;;;;;5108324;28;20063;-83
2021/01/10 12:12:13;;;;;;;10.97;6.27;;;;;;;;;;5104994;28;20020;-82
2021/01/10 12:14:39;;;;;;;14.53;7.43;;;;;;;;;;5086407;28;20032;-83
2021/01/10 12:17:08;;;;;;;15.90;7.67;;;;;;;;;;5087969;28;20028;-83
2021/01/10 12:19:34;;;;;;;13.27;7.43;;;;;;;;;;5076197;28;20031;-82
2021/01/10 12:22:00;;;;;;;11.70;7.13;;;;;;;;;;5088101;28;20118;-83
2021/01/10 12:24:26;;;;;;;13.67;6.70;;;;;;;;;;5087100;28;20036;-82
2021/01/10 12:26:52;;;;;;;11.63;6.90;;;;;;;;;;5083811;28;20024;-82
2021/01/10 12:29:18;;;;;;;10.87;5.87;;;;;;;;;;5102017;28;20062;-83
2021/01/10 12:31:44;;;;;;;10.57;5.50;;;;;;;;;;5089090;28;20027;-82
2021/01/10 12:34:11;;;;;;;13.73;6.20;;;;;;;;;;5088647;28;20393;-81
2021/01/10 12:36:45;;;;;;;14.47;7.20;;;;;;;;;;5089078;28;20048;-82
2021/01/10 12:39:11;;;;;;;;;;;;;;;;;;5091587;28;20123;-83
2021/01/10 12:41:37;;;;;;;12.07;7.53;;;;;;;;;;5090835;28;19908;-83
2021/01/10 12:44:04;;;;;;;15.37;7.43;;;;;;;;;;5094484;28;20031;-83
2021/01/10 12:46:30;;;;;;;17.47;8.93;;;;;;;;;;5095446;28;20024;-83
2021/01/10 12:48:56;;;;;;;14.23;8.07;;;;;;;;;;5092856;28;20040;-83
2021/01/10 12:51:22;;;;;;;15.07;7.90;;;;;;;;;;5109304;28;20028;-83
2021/01/10 12:53:49;;;;;;;14.97;7.40;;;;;;;;;;5103677;28;20364;-83
2021/01/10 12:56:15;;;;;;;11.43;7.00;;;;;;;;;;5090793;28;20087;-85
2021/01/10 12:58:41;;;;;;;13.37;6.60;;;;;;;;;;5110754;28;20016;-81
2021/01/10 13:01:09;;;;;;;13.70;6.83;;;;;;;;;;5100835;28;20051;-83
2021/01/10 13:03:35;;;;;;;9.37;6.37;;;;;;;;;;5083070;28;20031;-83
2021/01/10 13:06:01;;;;;;;7.73;5.47;;;;;;;;;;5099110;28;20142;-81
2021/01/10 13:08:27;;;;;;;8.43;5.67;;;;;;;;;;5082297;28;20082;-81
2021/01/10 13:10:53;;;;;;;13.37;7.13;;;;;;;;;;5083246;28;20098;-82
2021/01/10 13:13:19;;;;;;;12.47;6.97;;;;;;;;;;5082860;28;20043;-82
2021/01/10 13:15:45;;;;;;;8.80;6.07;;;;;;;;;;5081327;28;20035;-82
2021/01/10 13:18:11;;;;;;;10.63;6.27;;;;;;;;;;5064836;28;20024;-82
2021/01/10 13:20:37;;;;;;;11.80;6.77;;;;;;;;;;5066874;28;20129;-83
2021/01/10 13:23:03;;;;;;;10.07;6.93;;;;;;;;;;5081778;28;20035;-83
2021/01/10 13:25:30;;;;;;;14.97;7.80;;;;;;;;;;5084721;28;20032;-81
2021/01/10 13:27:56;;;;;;;13.13;7.33;;;;;;;;;;5086035;28;20082;-82
2021/01/10 13:30:22;;;;;;;11.53;7.33;;;;;;;;;;5109395;28;20073;-82
2021/01/10 13:32:48;;;;;;;10.93;7.57;;;;;;;;;;5092441;28;20047;-81
2021/01/10 13:35:14;;;;;;;11.60;7.70;;;;;;;;;;5087972;28;20038;-82
2021/01/10 13:37:40;;;;;;;18.13;9.90;;;;;;;;;;5087220;28;20020;-83
2021/01/10 13:40:06;;;;;;;9.77;7.23;;;;;;;;;;5088663;28;20024;-82
2021/01/10 13:42:32;;;;;;;17.83;8.93;;;;;;;;;;5090329;28;20050;-82
2021/01/10 13:44:59;;;;;;;21.33;9.53;;;;;;;;;;5092209;28;20133;-83
2021/01/10 13:47:25;;;;;;;13.27;9.50;;;;;;;;;;5073828;28;20028;-83
2021/01/10 13:49:51;;;;;;;14.67;9.97;;;;;;;;;;5090107;28;20044;-82
2021/01/10 13:52:17;;;;;;;16.70;11.20;;;;;;;;;;5112975;28;20109;-84
2021/01/10 13:54:43;;;;;;;16.67;11.50;;;;;;;;;;5105068;28;20020;-81
2021/01/10 13:57:11;;;;;;;15.93;10.10;;;;;;;;;;5086278;28;20032;-80
2021/01/10 13:59:37;;;;;;;13.60;9.03;;;;;;;;;;5084383;28;20027;-81
2021/01/10 14:02:05;;;;;;;12.67;8.93;;;;;;;;;;5085206;28;20032;-81
2021/01/10 14:04:31;;;;;;;13.90;9.03;;;;;;;;;;5084759;28;20039;-82
2021/01/10 14:07:00;;;;;;;15.47;9.57;;;;;;;;;;5085151;28;20028;-82
2021/01/10 14:09:26;;;;;;;14.77;9.00;;;;;;;;;;5090023;28;20024;-83
2021/01/10 14:11:52;;;;;;;17.23;12.60;;;;;;;;;;5072038;28;20032;-82
2021/01/10 14:14:18;;;;;;;30.23;13.13;;;;;;;;;;5073941;28;20141;-81
2021/01/10 14:16:44;;;;;;;16.70;10.87;;;;;;;;;;5073983;28;20028;-82
2021/01/10 14:19:10;;;;;;;14.40;10.43;;;;;;;;;;5092379;28;20024;-81
2021/01/10 14:21:40;;;;;;;18.60;10.57;;;;;;;;;;5093029;28;20024;-83
2021/01/10 14:24:09;;;;;;;14.43;10.90;;;;;;;;;;5095647;28;20057;-81
2021/01/10 14:26:37;;;;;;;13.53;9.67;;;;;;;;;;5076700;28;20035;-82
2021/01/10 14:29:04;;;;;;;13.30;10.67;;;;;;;;;;5095398;28;20020;-85
2021/01/10 14:31:31;;;;;;;18.17;10.33;;;;;;;;;;5096991;28;20415;-82
2021/01/10 14:33:57;;;;;;;14.83;10.83;;;;;;;;;;5094756;28;20039;-82
2021/01/10 14:36:23;;;;;;;18.53;11.97;;;;;;;;;;5097212;28;20056;-84
2021/01/10 14:38:49;;;;;;;22.97;10.87;;;;;;;;;;5101106;28;20059;-83
2021/01/10 14:41:21;;;;;;;17.10;10.40;;;;;;;;;;5118455;28;20016;-84